USTRANSCOM 7655


PGUM
Guam International Airport
Guam, GU
PHNL
Daniel K Inouye International Airport
Honolulu, US

Activity Log

Date Flight Route Aircraft Duration
08/15/2019 CMB855 DEWSS A450 NATIE A450 BRIUN NONNI BOOKE BOOKE8 B752 7h 53m

Route Details

Aircraft Information
Primary: Boeing 757-200SF
Backup: Not Available
Route Data
Distance: 3303nm
Sched. Duration: 6h 51m
Avg. Duration: 7h 53m (+101m)
Times Flown: 1
Recm'd Route: DEWSS A450 NATIE A450 BRIUN NONNI BOOKE BOOKE8
Planned Altitude: 33,000ft
Origin Wx: PGUM 030254Z 09012KT 10SM SCT023 BKN028 31/24 A2992 RMK AO2 SLP122 60000 T03110239 57007
Dest. Wx: PHNL 030253Z 03013KT 10SM FEW025 SCT040 30/20 A2998 RMK AO2 SLP150 T03000200 55009
Notes: USTRANSCOM CONTRACT FLIGHT | PAYLOAD RESTRICTED | ETOPS

Financial History
Total Freight: 51,038lbs
Average Load: 51,038lbs/flt
Fuel Used: 64,360lbs
Avg. Fuel Used: 64,360lbs/flt
Fuel Expense: $51,488
Avg. Fuel Expense: $51,488
Avg. Fuel Cost: $0.80/lbs
Total Gross Income: $268,460
Pilot Pay: $149
Total Expenses: $29,046
Total Revenue: $186,121
Average Revenue: $268,459.88